sensor_id;sensor_type;location;lat;lon;timestamp;P1;durP1;ratioP1;P2;durP2;ratioP2
10890;SDS011;5498;50.928;11.598;2022-09-01T00:03:01;971.53;;;879.53;;
10890;SDS011;5498;50.928;11.598;2022-09-01T00:06:08;941.43;;;851.53;;
10890;SDS011;5498;50.928;11.598;2022-09-01T00:09:11;950.13;;;858.83;;
10890;SDS011;5498;50.928;11.598;2022-09-01T00:12:15;952.97;;;862.10;;
10890;SDS011;5498;50.928;11.598;2022-09-01T00:15:23;941.17;;;849.87;;
10890;SDS011;5498;50.928;11.598;2022-09-01T00:18:25;914.43;;;825.67;;
10890;SDS011;5498;50.928;11.598;2022-09-01T00:21:27;905.70;;;816.30;;
10890;SDS011;5498;50.928;11.598;2022-09-01T00:24:32;890.43;;;800.53;;
10890;SDS011;5498;50.928;11.598;2022-09-01T00:27:34;872.30;;;782.67;;
10890;SDS011;5498;50.928;11.598;2022-09-01T00:30:38;875.90;;;787.00;;
10890;SDS011;5498;50.928;11.598;2022-09-01T00:33:40;912.13;;;820.00;;
10890;SDS011;5498;50.928;11.598;2022-09-01T00:36:42;882.00;;;791.47;;
10890;SDS011;5498;50.928;11.598;2022-09-01T00:39:44;859.83;;;770.50;;
10890;SDS011;5498;50.928;11.598;2022-09-01T00:42:46;873.63;;;785.43;;
10890;SDS011;5498;50.928;11.598;2022-09-01T00:45:50;898.93;;;809.10;;
10890;SDS011;5498;50.928;11.598;2022-09-01T00:48:53;906.07;;;815.13;;
10890;SDS011;5498;50.928;11.598;2022-09-01T00:51:59;868.87;;;779.07;;
10890;SDS011;5498;50.928;11.598;2022-09-01T00:55:06;883.13;;;794.33;;
10890;SDS011;5498;50.928;11.598;2022-09-01T00:58:11;919.47;;;828.57;;
10890;SDS011;5498;50.928;11.598;2022-09-01T01:01:14;854.17;;;766.00;;
10890;SDS011;5498;50.928;11.598;2022-09-01T01:04:16;855.13;;;767.73;;
10890;SDS011;5498;50.928;11.598;2022-09-01T01:07:18;802.07;;;717.43;;
10890;SDS011;5498;50.928;11.598;2022-09-01T01:10:22;900.33;;;810.73;;
10890;SDS011;5498;50.928;11.598;2022-09-01T01:13:25;846.30;;;759.17;;
10890;SDS011;5498;50.928;11.598;2022-09-01T01:16:37;893.07;;;805.73;;
10890;SDS011;5498;50.928;11.598;2022-09-01T01:19:44;822.90;;;734.67;;
10890;SDS011;5498;50.928;11.598;2022-09-01T01:23:10;822.50;;;736.87;;
10890;SDS011;5498;50.928;11.598;2022-09-01T01:26:23;852.00;;;762.63;;
10890;SDS011;5498;50.928;11.598;2022-09-01T01:29:26;893.80;;;805.10;;
10890;SDS011;5498;50.928;11.598;2022-09-01T01:32:33;904.30;;;815.60;;
10890;SDS011;5498;50.928;11.598;2022-09-01T01:35:35;895.87;;;807.00;;
10890;SDS011;5498;50.928;11.598;2022-09-01T01:38:37;895.93;;;806.03;;
10890;SDS011;5498;50.928;11.598;2022-09-01T01:41:42;870.90;;;782.23;;
10890;SDS011;5498;50.928;11.598;2022-09-01T01:44:47;885.90;;;797.87;;
10890;SDS011;5498;50.928;11.598;2022-09-01T01:47:50;901.13;;;811.57;;
10890;SDS011;5498;50.928;11.598;2022-09-01T01:50:53;879.03;;;789.93;;
10890;SDS011;5498;50.928;11.598;2022-09-01T01:53:58;864.37;;;776.57;;
10890;SDS011;5498;50.928;11.598;2022-09-01T01:57:05;863.23;;;774.83;;
10890;SDS011;5498;50.928;11.598;2022-09-01T02:00:08;819.60;;;739.03;;
10890;SDS011;5498;50.928;11.598;2022-09-01T02:03:14;912.53;;;828.03;;
10890;SDS011;5498;50.928;11.598;2022-09-01T02:06:20;881.47;;;798.07;;
10890;SDS011;5498;50.928;11.598;2022-09-01T02:09:24;885.17;;;801.27;;
10890;SDS011;5498;50.928;11.598;2022-09-01T02:12:27;907.63;;;822.97;;
10890;SDS011;5498;50.928;11.598;2022-09-01T02:15:33;887.23;;;803.63;;
10890;SDS011;5498;50.928;11.598;2022-09-01T02:18:38;888.43;;;804.83;;
10890;SDS011;5498;50.928;11.598;2022-09-01T02:21:43;877.30;;;794.00;;
10890;SDS011;5498;50.928;11.598;2022-09-01T02:24:53;905.73;;;820.93;;
10890;SDS011;5498;50.928;11.598;2022-09-01T02:27:56;901.17;;;816.80;;
10890;SDS011;5498;50.928;11.598;2022-09-01T02:30:59;892.47;;;808.40;;
10890;SDS011;5498;50.928;11.598;2022-09-01T02:34:01;893.77;;;809.60;;
10890;SDS011;5498;50.928;11.598;2022-09-01T02:37:03;903.27;;;818.87;;
10890;SDS011;5498;50.928;11.598;2022-09-01T02:40:06;894.43;;;809.93;;
10890;SDS011;5498;50.928;11.598;2022-09-01T02:43:11;896.00;;;811.53;;
10890;SDS011;5498;50.928;11.598;2022-09-01T02:46:18;885.47;;;800.87;;
10890;SDS011;5498;50.928;11.598;2022-09-01T02:49:24;874.13;;;791.03;;
10890;SDS011;5498;50.928;11.598;2022-09-01T02:52:28;890.17;;;806.13;;
10890;SDS011;5498;50.928;11.598;2022-09-01T02:55:34;884.07;;;800.27;;
10890;SDS011;5498;50.928;11.598;2022-09-01T02:58:38;885.80;;;801.97;;
10890;SDS011;5498;50.928;11.598;2022-09-01T03:01:45;894.40;;;809.90;;
10890;SDS011;5498;50.928;11.598;2022-09-01T03:04:47;891.50;;;807.03;;
10890;SDS011;5498;50.928;11.598;2022-09-01T03:07:55;869.60;;;784.47;;
10890;SDS011;5498;50.928;11.598;2022-09-01T03:11:00;874.00;;;790.07;;
10890;SDS011;5498;50.928;11.598;2022-09-01T03:14:03;862.77;;;778.97;;
10890;SDS011;5498;50.928;11.598;2022-09-01T03:17:07;869.13;;;784.37;;
10890;SDS011;5498;50.928;11.598;2022-09-01T03:20:09;869.97;;;785.27;;
10890;SDS011;5498;50.928;11.598;2022-09-01T03:23:12;866.07;;;779.63;;
10890;SDS011;5498;50.928;11.598;2022-09-01T03:26:18;871.23;;;785.60;;
10890;SDS011;5498;50.928;11.598;2022-09-01T03:29:23;854.67;;;769.90;;
10890;SDS011;5498;50.928;11.598;2022-09-01T03:32:25;864.97;;;779.97;;
10890;SDS011;5498;50.928;11.598;2022-09-01T03:35:28;860.40;;;775.60;;
10890;SDS011;5498;50.928;11.598;2022-09-01T03:38:31;861.30;;;777.17;;
10890;SDS011;5498;50.928;11.598;2022-09-01T03:41:33;857.17;;;773.57;;
10890;SDS011;5498;50.928;11.598;2022-09-01T03:44:38;850.87;;;767.10;;
10890;SDS011;5498;50.928;11.598;2022-09-01T03:47:41;859.80;;;775.90;;
10890;SDS011;5498;50.928;11.598;2022-09-01T03:50:44;853.20;;;769.03;;
10890;SDS011;5498;50.928;11.598;2022-09-01T03:53:46;862.77;;;778.00;;
10890;SDS011;5498;50.928;11.598;2022-09-01T03:56:54;839.13;;;755.07;;
10890;SDS011;5498;50.928;11.598;2022-09-01T04:00:01;846.53;;;762.70;;
10890;SDS011;5498;50.928;11.598;2022-09-01T04:03:07;859.10;;;774.53;;
10890;SDS011;5498;50.928;11.598;2022-09-01T04:06:13;840.60;;;756.93;;
10890;SDS011;5498;50.928;11.598;2022-09-01T04:09:19;821.23;;;738.20;;
10890;SDS011;5498;50.928;11.598;2022-09-01T04:12:21;824.93;;;742.77;;
10890;SDS011;5498;50.928;11.598;2022-09-01T04:15:26;818.83;;;737.27;;
10890;SDS011;5498;50.928;11.598;2022-09-01T04:18:31;772.80;;;692.87;;
10890;SDS011;5498;50.928;11.598;2022-09-01T04:21:32;724.13;;;646.47;;
10890;SDS011;5498;50.928;11.598;2022-09-01T04:24:34;751.67;;;672.83;;
10890;SDS011;5498;50.928;11.598;2022-09-01T04:27:36;749.97;;;671.30;;
10890;SDS011;5498;50.928;11.598;2022-09-01T04:30:40;739.17;;;661.23;;
10890;SDS011;5498;50.928;11.598;2022-09-01T04:33:43;741.57;;;663.53;;
10890;SDS011;5498;50.928;11.598;2022-09-01T04:36:46;735.10;;;657.17;;
10890;SDS011;5498;50.928;11.598;2022-09-01T04:39:50;729.33;;;651.80;;
10890;SDS011;5498;50.928;11.598;2022-09-01T04:42:54;729.33;;;651.53;;
10890;SDS011;5498;50.928;11.598;2022-09-01T04:45:57;683.03;;;592.97;;
10890;SDS011;5498;50.928;11.598;2022-09-01T04:49:00;690.30;;;613.40;;
10890;SDS011;5498;50.928;11.598;2022-09-01T04:52:10;703.20;;;626.23;;
10890;SDS011;5498;50.928;11.598;2022-09-01T04:55:13;670.20;;;559.97;;
10890;SDS011;5498;50.928;11.598;2022-09-01T04:58:17;673.83;;;573.67;;
10890;SDS011;5498;50.928;11.598;2022-09-01T05:01:22;667.23;;;554.73;;
10890;SDS011;5498;50.928;11.598;2022-09-01T05:04:27;676.07;;;582.33;;
10890;SDS011;5498;50.928;11.598;2022-09-01T05:07:39;685.13;;;609.23;;
10890;SDS011;5498;50.928;11.598;2022-09-01T05:10:43;677.93;;;596.73;;
10890;SDS011;5498;50.928;11.598;2022-09-01T05:13:51;678.47;;;593.37;;
10890;SDS011;5498;50.928;11.598;2022-09-01T05:16:58;685.90;;;609.97;;
10890;SDS011;5498;50.928;11.598;2022-09-01T05:20:06;682.77;;;592.53;;
10890;SDS011;5498;50.928;11.598;2022-09-01T05:23:10;671.80;;;569.13;;
10890;SDS011;5498;50.928;11.598;2022-09-01T05:26:13;673.10;;;574.03;;
10890;SDS011;5498;50.928;11.598;2022-09-01T05:29:17;687.37;;;611.50;;
10890;SDS011;5498;50.928;11.598;2022-09-01T05:32:21;678.70;;;593.03;;
10890;SDS011;5498;50.928;11.598;2022-09-01T05:35:25;670.90;;;557.67;;
10890;SDS011;5498;50.928;11.598;2022-09-01T05:38:27;675.37;;;574.07;;
10890;SDS011;5498;50.928;11.598;2022-09-01T05:41:30;665.93;;;552.93;;
10890;SDS011;5498;50.928;11.598;2022-09-01T05:44:34;671.33;;;565.60;;
10890;SDS011;5498;50.928;11.598;2022-09-01T05:47:39;655.97;;;521.73;;
10890;SDS011;5498;50.928;11.598;2022-09-01T05:50:41;671.60;;;529.40;;
10890;SDS011;5498;50.928;11.598;2022-09-01T05:53:44;674.47;;;569.73;;
10890;SDS011;5498;50.928;11.598;2022-09-01T05:56:51;674.17;;;589.70;;
10890;SDS011;5498;50.928;11.598;2022-09-01T05:59:56;680.23;;;592.80;;
10890;SDS011;5498;50.928;11.598;2022-09-01T06:02:59;682.60;;;605.93;;
10890;SDS011;5498;50.928;11.598;2022-09-01T06:06:04;671.23;;;574.73;;
10890;SDS011;5498;50.928;11.598;2022-09-01T06:09:11;689.47;;;613.80;;
10890;SDS011;5498;50.928;11.598;2022-09-01T06:12:17;693.63;;;617.87;;
10890;SDS011;5498;50.928;11.598;2022-09-01T06:15:22;748.83;;;670.73;;
10890;SDS011;5498;50.928;11.598;2022-09-01T06:18:25;751.07;;;673.30;;
10890;SDS011;5498;50.928;11.598;2022-09-01T06:21:27;777.53;;;698.27;;
10890;SDS011;5498;50.928;11.598;2022-09-01T06:24:30;771.20;;;693.00;;
10890;SDS011;5498;50.928;11.598;2022-09-01T06:27:32;757.07;;;679.37;;
10890;SDS011;5498;50.928;11.598;2022-09-01T06:30:40;789.00;;;709.93;;
10890;SDS011;5498;50.928;11.598;2022-09-01T06:33:44;798.47;;;718.90;;
10890;SDS011;5498;50.928;11.598;2022-09-01T06:36:47;797.47;;;718.47;;
10890;SDS011;5498;50.928;11.598;2022-09-01T06:39:50;822.37;;;742.30;;
10890;SDS011;5498;50.928;11.598;2022-09-01T06:42:53;821.37;;;741.20;;
10890;SDS011;5498;50.928;11.598;2022-09-01T06:45:55;803.43;;;724.23;;
10890;SDS011;5498;50.928;11.598;2022-09-01T06:48:59;832.83;;;752.70;;
10890;SDS011;5498;50.928;11.598;2022-09-01T06:52:01;820.13;;;740.60;;
10890;SDS011;5498;50.928;11.598;2022-09-01T06:55:04;830.53;;;750.20;;
10890;SDS011;5498;50.928;11.598;2022-09-01T06:58:08;828.63;;;748.33;;
10890;SDS011;5498;50.928;11.598;2022-09-01T07:01:15;848.30;;;767.63;;
10890;SDS011;5498;50.928;11.598;2022-09-01T07:04:19;863.30;;;782.33;;
10890;SDS011;5498;50.928;11.598;2022-09-01T07:07:22;868.63;;;787.40;;
10890;SDS011;5498;50.928;11.598;2022-09-01T07:10:24;893.20;;;810.57;;
10890;SDS011;5498;50.928;11.598;2022-09-01T07:13:27;911.20;;;828.10;;
10890;SDS011;5498;50.928;11.598;2022-09-01T07:16:30;923.57;;;840.17;;
10890;SDS011;5498;50.928;11.598;2022-09-01T07:19:40;928.63;;;844.87;;
10890;SDS011;5498;50.928;11.598;2022-09-01T07:22:42;952.87;;;867.90;;
10890;SDS011;5498;50.928;11.598;2022-09-01T07:25:45;956.40;;;871.43;;
10890;SDS011;5498;50.928;11.598;2022-09-01T07:28:51;965.83;;;880.40;;
10890;SDS011;5498;50.928;11.598;2022-09-01T07:31:53;1013.73;;;924.30;;
10890;SDS011;5498;50.928;11.598;2022-09-01T07:34:57;1019.13;;;927.20;;
10890;SDS011;5498;50.928;11.598;2022-09-01T07:37:59;1030.83;;;937.70;;
10890;SDS011;5498;50.928;11.598;2022-09-01T07:41:03;1030.57;;;939.10;;
10890;SDS011;5498;50.928;11.598;2022-09-01T07:44:05;1033.13;;;941.90;;
10890;SDS011;5498;50.928;11.598;2022-09-01T07:47:09;1063.90;;;971.73;;
10890;SDS011;5498;50.928;11.598;2022-09-01T07:50:14;1078.03;;;984.93;;
10890;SDS011;5498;50.928;11.598;2022-09-01T07:53:18;1072.73;;;979.43;;
10890;SDS011;5498;50.928;11.598;2022-09-01T07:56:23;1075.30;;;981.13;;
10890;SDS011;5498;50.928;11.598;2022-09-01T07:59:25;1079.27;;;985.23;;
10890;SDS011;5498;50.928;11.598;2022-09-01T08:02:28;1073.10;;;979.97;;
10890;SDS011;5498;50.928;11.598;2022-09-01T08:05:34;1083.80;;;990.07;;
10890;SDS011;5498;50.928;11.598;2022-09-01T08:08:36;1095.73;;;999.23;;
10890;SDS011;5498;50.928;11.598;2022-09-01T08:11:39;1114.67;;;999.90;;
10890;SDS011;5498;50.928;11.598;2022-09-01T08:14:42;1112.47;;;999.90;;
10890;SDS011;5498;50.928;11.598;2022-09-01T08:17:45;1129.83;;;999.90;;
10890;SDS011;5498;50.928;11.598;2022-09-01T08:20:48;1133.47;;;999.90;;
10890;SDS011;5498;50.928;11.598;2022-09-01T08:23:51;1138.13;;;999.90;;
10890;SDS011;5498;50.928;11.598;2022-09-01T08:26:54;1161.43;;;999.90;;
10890;SDS011;5498;50.928;11.598;2022-09-01T08:29:56;1174.97;;;999.90;;
10890;SDS011;5498;50.928;11.598;2022-09-01T08:32:59;1184.43;;;999.90;;
10890;SDS011;5498;50.928;11.598;2022-09-01T08:36:05;1188.13;;;999.90;;
10890;SDS011;5498;50.928;11.598;2022-09-01T08:39:10;1189.63;;;999.90;;
10890;SDS011;5498;50.928;11.598;2022-09-01T08:42:13;1185.83;;;999.90;;
10890;SDS011;5498;50.928;11.598;2022-09-01T08:45:22;1178.70;;;999.90;;
10890;SDS011;5498;50.928;11.598;2022-09-01T08:48:30;1202.83;;;999.90;;
10890;SDS011;5498;50.928;11.598;2022-09-01T08:51:42;1199.60;;;999.90;;
10890;SDS011;5498;50.928;11.598;2022-09-01T08:54:50;1193.60;;;999.90;;
10890;SDS011;5498;50.928;11.598;2022-09-01T08:57:58;1195.67;;;999.90;;
10890;SDS011;5498;50.928;11.598;2022-09-01T09:01:06;1215.10;;;999.90;;
10890;SDS011;5498;50.928;11.598;2022-09-01T09:04:21;1214.17;;;999.90;;
10890;SDS011;5498;50.928;11.598;2022-09-01T09:07:45;1219.57;;;999.90;;
10890;SDS011;5498;50.928;11.598;2022-09-01T09:11:03;1235.87;;;999.90;;
10890;SDS011;5498;50.928;11.598;2022-09-01T09:14:13;1231.53;;;999.90;;
10890;SDS011;5498;50.928;11.598;2022-09-01T09:17:24;1224.70;;;999.90;;
10890;SDS011;5498;50.928;11.598;2022-09-01T09:20:33;1258.13;;;999.90;;
10890;SDS011;5498;50.928;11.598;2022-09-01T09:23:37;1238.70;;;999.90;;
10890;SDS011;5498;50.928;11.598;2022-09-01T09:26:47;1245.93;;;999.90;;
10890;SDS011;5498;50.928;11.598;2022-09-01T09:29:50;1249.20;;;999.90;;
10890;SDS011;5498;50.928;11.598;2022-09-01T09:32:55;1240.33;;;999.90;;
10890;SDS011;5498;50.928;11.598;2022-09-01T09:36:14;1235.03;;;999.90;;
10890;SDS011;5498;50.928;11.598;2022-09-01T09:39:21;1240.33;;;999.90;;
10890;SDS011;5498;50.928;11.598;2022-09-01T09:42:23;1231.63;;;999.90;;
10890;SDS011;5498;50.928;11.598;2022-09-01T09:45:28;1230.67;;;999.90;;
10890;SDS011;5498;50.928;11.598;2022-09-01T09:48:32;1232.47;;;999.90;;
10890;SDS011;5498;50.928;11.598;2022-09-01T09:51:37;1221.03;;;999.90;;
10890;SDS011;5498;50.928;11.598;2022-09-01T09:58:08;1239.13;;;999.90;;
10890;SDS011;5498;50.928;11.598;2022-09-01T10:01:12;1229.20;;;999.90;;
10890;SDS011;5498;50.928;11.598;2022-09-01T10:04:33;1237.97;;;999.90;;
10890;SDS011;5498;50.928;11.598;2022-09-01T10:07:38;1232.73;;;999.90;;
10890;SDS011;5498;50.928;11.598;2022-09-01T10:10:42;1234.70;;;999.90;;
10890;SDS011;5498;50.928;11.598;2022-09-01T10:13:46;1240.53;;;999.90;;
10890;SDS011;5498;50.928;11.598;2022-09-01T10:16:49;1215.43;;;999.90;;
10890;SDS011;5498;50.928;11.598;2022-09-01T10:19:57;1229.20;;;999.90;;
10890;SDS011;5498;50.928;11.598;2022-09-01T10:23:04;1208.03;;;999.90;;
10890;SDS011;5498;50.928;11.598;2022-09-01T10:26:08;1192.37;;;999.90;;
10890;SDS011;5498;50.928;11.598;2022-09-01T10:29:15;1201.87;;;999.90;;
10890;SDS011;5498;50.928;11.598;2022-09-01T10:32:25;1198.23;;;999.90;;
10890;SDS011;5498;50.928;11.598;2022-09-01T10:35:34;1179.10;;;999.90;;
10890;SDS011;5498;50.928;11.598;2022-09-01T10:38:40;1180.40;;;999.90;;
10890;SDS011;5498;50.928;11.598;2022-09-01T10:41:53;1183.70;;;999.90;;
10890;SDS011;5498;50.928;11.598;2022-09-01T10:44:57;1176.50;;;999.90;;
10890;SDS011;5498;50.928;11.598;2022-09-01T10:51:41;1169.93;;;999.90;;
10890;SDS011;5498;50.928;11.598;2022-09-01T10:54:52;1168.10;;;999.90;;
10890;SDS011;5498;50.928;11.598;2022-09-01T10:58:03;1170.43;;;999.90;;
10890;SDS011;5498;50.928;11.598;2022-09-01T11:05:12;1165.07;;;999.90;;
10890;SDS011;5498;50.928;11.598;2022-09-01T11:08:21;1152.57;;;999.90;;
10890;SDS011;5498;50.928;11.598;2022-09-01T11:11:41;1154.73;;;999.90;;
10890;SDS011;5498;50.928;11.598;2022-09-01T11:14:52;1157.47;;;999.90;;
10890;SDS011;5498;50.928;11.598;2022-09-01T11:17:56;1170.77;;;999.90;;
10890;SDS011;5498;50.928;11.598;2022-09-01T11:21:12;1159.67;;;999.90;;
10890;SDS011;5498;50.928;11.598;2022-09-01T11:27:56;1166.00;;;999.90;;
10890;SDS011;5498;50.928;11.598;2022-09-01T11:31:38;1156.20;;;999.90;;
10890;SDS011;5498;50.928;11.598;2022-09-01T11:34:43;1164.97;;;999.90;;
10890;SDS011;5498;50.928;11.598;2022-09-01T11:37:49;1160.67;;;999.90;;
10890;SDS011;5498;50.928;11.598;2022-09-01T11:40:54;1158.73;;;999.90;;
10890;SDS011;5498;50.928;11.598;2022-09-01T11:43:57;1167.60;;;999.90;;
10890;SDS011;5498;50.928;11.598;2022-09-01T11:47:03;1149.87;;;999.90;;
10890;SDS011;5498;50.928;11.598;2022-09-01T11:50:16;1161.77;;;999.90;;
10890;SDS011;5498;50.928;11.598;2022-09-01T11:53:22;1148.33;;;999.90;;
10890;SDS011;5498;50.928;11.598;2022-09-01T11:56:25;1171.73;;;999.90;;
10890;SDS011;5498;50.928;11.598;2022-09-01T11:59:29;1168.77;;;999.90;;
10890;SDS011;5498;50.928;11.598;2022-09-01T12:02:35;1180.80;;;999.90;;
10890;SDS011;5498;50.928;11.598;2022-09-01T12:05:45;1184.03;;;999.90;;
10890;SDS011;5498;50.928;11.598;2022-09-01T12:08:50;1170.43;;;999.90;;
10890;SDS011;5498;50.928;11.598;2022-09-01T12:11:55;1171.80;;;999.90;;
10890;SDS011;5498;50.928;11.598;2022-09-01T12:14:57;1163.90;;;999.90;;
10890;SDS011;5498;50.928;11.598;2022-09-01T12:18:10;1161.20;;;999.90;;
10890;SDS011;5498;50.928;11.598;2022-09-01T12:21:19;1150.07;;;999.90;;
10890;SDS011;5498;50.928;11.598;2022-09-01T12:24:23;1157.87;;;999.90;;
10890;SDS011;5498;50.928;11.598;2022-09-01T12:27:25;1155.67;;;999.90;;
10890;SDS011;5498;50.928;11.598;2022-09-01T12:30:27;1155.37;;;999.90;;
10890;SDS011;5498;50.928;11.598;2022-09-01T12:33:31;1137.93;;;999.90;;
10890;SDS011;5498;50.928;11.598;2022-09-01T12:36:35;1122.80;;;999.90;;
10890;SDS011;5498;50.928;11.598;2022-09-01T12:39:38;1136.00;;;999.90;;
10890;SDS011;5498;50.928;11.598;2022-09-01T12:42:48;1129.03;;;999.90;;
10890;SDS011;5498;50.928;11.598;2022-09-01T12:45:53;1125.27;;;999.90;;
10890;SDS011;5498;50.928;11.598;2022-09-01T12:52:20;1153.53;;;999.90;;
10890;SDS011;5498;50.928;11.598;2022-09-01T12:55:26;1146.70;;;999.90;;
10890;SDS011;5498;50.928;11.598;2022-09-01T12:58:30;1163.57;;;999.90;;
10890;SDS011;5498;50.928;11.598;2022-09-01T13:01:33;1161.37;;;999.90;;
10890;SDS011;5498;50.928;11.598;2022-09-01T13:04:37;1156.73;;;999.90;;
10890;SDS011;5498;50.928;11.598;2022-09-01T13:07:41;1145.80;;;999.90;;
10890;SDS011;5498;50.928;11.598;2022-09-01T13:10:43;1137.90;;;999.90;;
10890;SDS011;5498;50.928;11.598;2022-09-01T13:13:48;1141.33;;;999.90;;
10890;SDS011;5498;50.928;11.598;2022-09-01T13:16:50;1151.73;;;999.90;;
10890;SDS011;5498;50.928;11.598;2022-09-01T13:19:53;1151.37;;;999.90;;
10890;SDS011;5498;50.928;11.598;2022-09-01T13:22:55;1155.30;;;999.90;;
10890;SDS011;5498;50.928;11.598;2022-09-01T13:25:58;1142.40;;;999.90;;
10890;SDS011;5498;50.928;11.598;2022-09-01T13:28:59;1150.53;;;999.90;;
10890;SDS011;5498;50.928;11.598;2022-09-01T13:32:03;1130.97;;;999.90;;
10890;SDS011;5498;50.928;11.598;2022-09-01T13:35:08;1141.67;;;999.90;;
10890;SDS011;5498;50.928;11.598;2022-09-01T13:38:10;1133.37;;;999.90;;
10890;SDS011;5498;50.928;11.598;2022-09-01T13:41:15;1142.60;;;999.90;;
10890;SDS011;5498;50.928;11.598;2022-09-01T13:44:17;1143.37;;;999.90;;
10890;SDS011;5498;50.928;11.598;2022-09-01T13:47:20;1148.93;;;999.90;;
10890;SDS011;5498;50.928;11.598;2022-09-01T13:50:24;1142.37;;;999.90;;
10890;SDS011;5498;50.928;11.598;2022-09-01T13:53:26;1155.80;;;999.90;;
10890;SDS011;5498;50.928;11.598;2022-09-01T13:56:28;1142.90;;;999.90;;
10890;SDS011;5498;50.928;11.598;2022-09-01T13:59:30;1152.10;;;999.90;;
10890;SDS011;5498;50.928;11.598;2022-09-01T14:02:32;1157.37;;;999.90;;
10890;SDS011;5498;50.928;11.598;2022-09-01T14:05:37;1154.90;;;999.90;;
10890;SDS011;5498;50.928;11.598;2022-09-01T14:08:42;1139.70;;;999.90;;
10890;SDS011;5498;50.928;11.598;2022-09-01T14:11:43;1138.50;;;999.90;;
10890;SDS011;5498;50.928;11.598;2022-09-01T14:14:45;1128.47;;;999.90;;
10890;SDS011;5498;50.928;11.598;2022-09-01T14:17:48;1132.83;;;999.90;;
10890;SDS011;5498;50.928;11.598;2022-09-01T14:20:53;1134.40;;;999.90;;
10890;SDS011;5498;50.928;11.598;2022-09-01T14:23:58;1124.73;;;999.90;;
10890;SDS011;5498;50.928;11.598;2022-09-01T14:27:00;1138.63;;;999.90;;
10890;SDS011;5498;50.928;11.598;2022-09-01T14:30:03;1128.90;;;999.90;;
10890;SDS011;5498;50.928;11.598;2022-09-01T14:33:07;1113.93;;;999.90;;
10890;SDS011;5498;50.928;11.598;2022-09-01T14:36:16;1124.87;;;999.90;;
10890;SDS011;5498;50.928;11.598;2022-09-01T14:39:21;1122.23;;;999.90;;
10890;SDS011;5498;50.928;11.598;2022-09-01T14:42:23;1118.23;;;999.90;;
10890;SDS011;5498;50.928;11.598;2022-09-01T14:45:27;1123.47;;;999.90;;
10890;SDS011;5498;50.928;11.598;2022-09-01T14:48:29;1133.33;;;999.90;;
10890;SDS011;5498;50.928;11.598;2022-09-01T14:51:33;1127.60;;;999.90;;
10890;SDS011;5498;50.928;11.598;2022-09-01T14:54:36;1138.87;;;999.90;;
10890;SDS011;5498;50.928;11.598;2022-09-01T14:57:41;1143.17;;;999.90;;
10890;SDS011;5498;50.928;11.598;2022-09-01T15:00:43;1136.87;;;999.90;;
10890;SDS011;5498;50.928;11.598;2022-09-01T15:03:47;1146.87;;;999.90;;
10890;SDS011;5498;50.928;11.598;2022-09-01T15:06:50;1143.77;;;999.90;;
10890;SDS011;5498;50.928;11.598;2022-09-01T15:09:52;1140.40;;;999.90;;
10890;SDS011;5498;50.928;11.598;2022-09-01T15:12:55;1136.60;;;999.90;;
10890;SDS011;5498;50.928;11.598;2022-09-01T15:15:58;1144.63;;;999.90;;
10890;SDS011;5498;50.928;11.598;2022-09-01T15:19:00;1142.03;;;999.90;;
10890;SDS011;5498;50.928;11.598;2022-09-01T15:22:03;1141.80;;;999.90;;
10890;SDS011;5498;50.928;11.598;2022-09-01T15:25:06;1145.17;;;999.90;;
10890;SDS011;5498;50.928;11.598;2022-09-01T15:28:09;1152.97;;;999.90;;
10890;SDS011;5498;50.928;11.598;2022-09-01T15:31:12;1141.17;;;999.90;;
10890;SDS011;5498;50.928;11.598;2022-09-01T15:34:17;1133.97;;;999.90;;
10890;SDS011;5498;50.928;11.598;2022-09-01T15:37:20;1142.47;;;999.90;;
10890;SDS011;5498;50.928;11.598;2022-09-01T15:40:23;1138.97;;;999.90;;
10890;SDS011;5498;50.928;11.598;2022-09-01T15:43:26;1135.57;;;999.90;;
10890;SDS011;5498;50.928;11.598;2022-09-01T15:46:29;1128.07;;;999.90;;
10890;SDS011;5498;50.928;11.598;2022-09-01T15:49:31;1126.00;;;999.90;;
10890;SDS011;5498;50.928;11.598;2022-09-01T15:52:35;1132.93;;;999.90;;
10890;SDS011;5498;50.928;11.598;2022-09-01T15:55:49;1125.27;;;999.90;;
10890;SDS011;5498;50.928;11.598;2022-09-01T15:58:52;1134.23;;;999.90;;
10890;SDS011;5498;50.928;11.598;2022-09-01T16:01:54;1126.97;;;999.90;;
10890;SDS011;5498;50.928;11.598;2022-09-01T16:04:56;1137.17;;;999.90;;
10890;SDS011;5498;50.928;11.598;2022-09-01T16:08:00;1153.30;;;999.90;;
10890;SDS011;5498;50.928;11.598;2022-09-01T16:11:06;1136.77;;;999.90;;
10890;SDS011;5498;50.928;11.598;2022-09-01T16:14:09;1143.60;;;999.90;;
10890;SDS011;5498;50.928;11.598;2022-09-01T16:17:12;1142.23;;;999.90;;
10890;SDS011;5498;50.928;11.598;2022-09-01T16:20:25;1141.00;;;999.90;;
10890;SDS011;5498;50.928;11.598;2022-09-01T16:23:33;1125.93;;;999.90;;
10890;SDS011;5498;50.928;11.598;2022-09-01T16:26:43;1124.80;;;999.90;;
10890;SDS011;5498;50.928;11.598;2022-09-01T16:29:49;1110.77;;;999.90;;
10890;SDS011;5498;50.928;11.598;2022-09-01T16:32:55;1113.97;;;999.90;;
10890;SDS011;5498;50.928;11.598;2022-09-01T16:36:13;1102.73;;;999.33;;
10890;SDS011;5498;50.928;11.598;2022-09-01T16:39:31;1118.27;;;999.90;;
10890;SDS011;5498;50.928;11.598;2022-09-01T16:42:41;1103.97;;;999.23;;
10890;SDS011;5498;50.928;11.598;2022-09-01T16:45:52;1106.23;;;999.80;;
10890;SDS011;5498;50.928;11.598;2022-09-01T16:49:04;1072.93;;;974.97;;
10890;SDS011;5498;50.928;11.598;2022-09-01T16:52:19;1108.83;;;999.90;;
10890;SDS011;5498;50.928;11.598;2022-09-01T16:55:28;1064.47;;;967.73;;
10890;SDS011;5498;50.928;11.598;2022-09-01T16:58:43;1075.43;;;976.40;;
10890;SDS011;5498;50.928;11.598;2022-09-01T17:01:53;1068.77;;;970.00;;
10890;SDS011;5498;50.928;11.598;2022-09-01T17:05:11;1074.87;;;975.80;;
10890;SDS011;5498;50.928;11.598;2022-09-01T17:08:21;1073.53;;;974.70;;
10890;SDS011;5498;50.928;11.598;2022-09-01T17:11:30;1075.73;;;977.57;;
10890;SDS011;5498;50.928;11.598;2022-09-01T17:14:40;1081.80;;;977.30;;
10890;SDS011;5498;50.928;11.598;2022-09-01T17:17:53;1097.97;;;996.00;;
10890;SDS011;5498;50.928;11.598;2022-09-01T17:21:08;1093.23;;;994.13;;
10890;SDS011;5498;50.928;11.598;2022-09-01T17:24:15;1090.03;;;991.33;;
10890;SDS011;5498;50.928;11.598;2022-09-01T17:27:37;1077.63;;;980.20;;
10890;SDS011;5498;50.928;11.598;2022-09-01T17:30:51;1094.93;;;995.73;;
10890;SDS011;5498;50.928;11.598;2022-09-01T17:34:02;1111.33;;;999.90;;
10890;SDS011;5498;50.928;11.598;2022-09-01T17:37:17;1100.13;;;997.43;;
10890;SDS011;5498;50.928;11.598;2022-09-01T17:40:37;1103.90;;;998.33;;
10890;SDS011;5498;50.928;11.598;2022-09-01T17:43:53;1095.77;;;995.80;;